Time;durP1;ratioP1;P1;durP2;ratioP2;P2;SDS_P1;SDS_P2;PMS_P1;PMS_P2;Temp;Humidity;BMP_temperature;BMP_pressure;BME280_temperature;BME280_humidity;BME280_pressure;Samples;Min_cycle;Max_cycle;Signal;HPM_P1;HPM_P2
2022/11/29 00:02:12;;;;;;;10.20;6.63;;;;;;;;;;5092266;28;20445;-72
2022/11/29 00:04:39;;;;;;;8.82;5.97;;;;;;;;;;5092192;28;20078;-73
2022/11/29 00:07:04;;;;;;;12.55;7.72;;;;;;;;;;5107646;28;20570;-72
2022/11/29 00:09:29;;;;;;;9.38;6.47;;;;;;;;;;5092057;28;20044;-73
2022/11/29 00:12:13;;;;;;;10.02;7.28;;;;;;;;;;5107598;28;20456;-73
2022/11/29 00:14:39;;;;;;;11.27;7.90;;;;;;;;;;5092188;28;20016;-74
2022/11/29 00:17:04;;;;;;;11.27;8.07;;;;;;;;;;5091663;28;20427;-72
2022/11/29 00:19:31;;;;;;;11.18;8.15;;;;;;;;;;5092167;28;20020;-74
2022/11/29 00:21:56;;;;;;;12.57;7.53;;;;;;;;;;5095732;28;20016;-75
2022/11/29 00:24:22;;;;;;;10.88;7.47;;;;;;;;;;5095983;28;20091;-75
2022/11/29 00:26:47;;;;;;;11.25;7.70;;;;;;;;;;5111318;28;20036;-74
2022/11/29 00:29:12;;;;;;;11.73;7.90;;;;;;;;;;5095620;28;20032;-73
2022/11/29 00:31:38;;;;;;;11.32;7.50;;;;;;;;;;5111759;28;20020;-75
2022/11/29 00:34:05;;;;;;;9.95;7.43;;;;;;;;;;5096025;28;20020;-73
2022/11/29 00:36:31;;;;;;;14.50;9.82;;;;;;;;;;5095836;28;20024;-75
2022/11/29 00:38:57;;;;;;;10.30;7.97;;;;;;;;;;5095534;28;20027;-73
2022/11/29 00:41:22;;;;;;;10.20;8.23;;;;;;;;;;5111209;28;20054;-74
2022/11/29 00:43:48;;;;;;;9.57;6.35;;;;;;;;;;5111757;28;20035;-75
2022/11/29 00:46:13;;;;;;;11.50;8.30;;;;;;;;;;5111182;28;20084;-72
2022/11/29 00:48:38;;;;;;;13.63;7.25;;;;;;;;;;5095857;28;20015;-74
2022/11/29 00:51:04;;;;;;;11.77;8.95;;;;;;;;;;5095926;28;20024;-75
2022/11/29 00:53:30;;;;;;;12.60;8.50;;;;;;;;;;5095591;28;20099;-75
2022/11/29 00:55:56;;;;;;;12.32;7.88;;;;;;;;;;5111072;28;20016;-74
2022/11/29 00:58:21;;;;;;;12.68;7.50;;;;;;;;;;5095677;28;20014;-75
2022/11/29 01:00:47;;;;;;;9.95;7.13;;;;;;;;;;5095474;28;20016;-74
2022/11/29 01:03:12;;;;;;;12.10;7.10;;;;;;;;;;5095384;28;20043;-74
2022/11/29 01:05:39;;;;;;;10.15;7.75;;;;;;;;;;5095047;28;20027;-76
2022/11/29 01:08:05;;;;;;;9.55;7.00;;;;;;;;;;5095430;28;20020;-74
2022/11/29 01:10:31;;;;;;;12.18;7.55;;;;;;;;;;5095092;28;20096;-74
2022/11/29 01:12:56;;;;;;;12.30;8.05;;;;;;;;;;5095059;28;20376;-73
2022/11/29 01:15:22;;;;;;;12.25;7.47;;;;;;;;;;5095239;28;20012;-75
2022/11/29 01:17:48;;;;;;;12.73;7.65;;;;;;;;;;5095460;28;20166;-73
2022/11/29 01:20:14;;;;;;;12.13;7.68;;;;;;;;;;5093906;28;20421;-75
2022/11/29 01:22:39;;;;;;;8.55;5.80;;;;;;;;;;5094940;28;20092;-73
2022/11/29 01:25:05;;;;;;;12.80;7.85;;;;;;;;;;5094584;28;20020;-70
2022/11/29 01:27:31;;;;;;;10.60;7.82;;;;;;;;;;5094914;28;20472;-72
2022/11/29 01:29:56;;;;;;;10.63;7.15;;;;;;;;;;5094624;28;20022;-73
2022/11/29 01:32:22;;;;;;;11.98;7.10;;;;;;;;;;5094031;28;20027;-70
2022/11/29 01:34:47;;;;;;;11.82;7.18;;;;;;;;;;5094459;28;20008;-70
2022/11/29 01:37:13;;;;;;;11.30;7.38;;;;;;;;;;5094293;28;20016;-70
2022/11/29 01:39:38;;;;;;;13.25;8.00;;;;;;;;;;5109982;28;20388;-71
2022/11/29 01:42:03;;;;;;;10.23;7.10;;;;;;;;;;5110191;28;20024;-71
2022/11/29 01:44:29;;;;;;;8.95;6.63;;;;;;;;;;5110109;28;20020;-71
2022/11/29 01:46:54;;;;;;;9.52;6.38;;;;;;;;;;5094459;28;20081;-68
2022/11/29 01:49:22;;;;;;;10.13;7.05;;;;;;;;;;5094119;28;20026;-69
2022/11/29 01:51:52;;;;;;;12.05;8.05;;;;;;;;;;5094109;28;20024;-69
2022/11/29 01:54:18;;;;;;;12.32;7.78;;;;;;;;;;5093959;28;20020;-71
2022/11/29 01:56:46;;;;;;;9.15;6.72;;;;;;;;;;5109925;28;20028;-70
2022/11/29 01:59:13;;;;;;;10.90;6.53;;;;;;;;;;5094136;28;20126;-72
2022/11/29 02:01:38;;;;;;;8.90;6.35;;;;;;;;;;5094084;28;20027;-70
2022/11/29 02:04:04;;;;;;;10.32;8.07;;;;;;;;;;5094357;28;20380;-70
2022/11/29 02:06:30;;;;;;;14.20;8.02;;;;;;;;;;5093811;28;20024;-70
2022/11/29 02:08:55;;;;;;;14.70;9.55;;;;;;;;;;5093739;28;20024;-70
2022/11/29 02:11:39;;;;;;;11.32;6.80;;;;;;;;;;5093879;28;20012;-71
2022/11/29 02:14:23;;;;;;;14.85;8.65;;;;;;;;;;5109571;28;20120;-69
2022/11/29 02:16:56;;;;;;;15.23;7.30;;;;;;;;;;5093841;28;20035;-71
2022/11/29 02:19:25;;;;;;;11.57;8.80;;;;;;;;;;5109387;28;20020;-68
2022/11/29 02:21:53;;;;;;;13.27;8.20;;;;;;;;;;5093941;28;20492;-70
2022/11/29 02:24:35;;;;;;;14.50;8.77;;;;;;;;;;5093722;28;20016;-71
2022/11/29 02:27:00;;;;;;;12.02;8.02;;;;;;;;;;5093224;28;20043;-70
2022/11/29 02:29:28;;;;;;;13.23;8.93;;;;;;;;;;5093387;28;20020;-70
2022/11/29 02:31:57;;;;;;;11.38;7.45;;;;;;;;;;5093637;28;20362;-68
2022/11/29 02:34:28;;;;;;;12.75;8.77;;;;;;;;;;5093487;28;20020;-69
2022/11/29 02:37:03;;;;;;;14.52;8.70;;;;;;;;;;5093333;28;20026;-70
2022/11/29 02:39:46;;;;;;;11.45;8.40;;;;;;;;;;5093463;28;20023;-72
2022/11/29 02:42:23;;;;;;;11.40;7.63;;;;;;;;;;5092814;28;20409;-70
2022/11/29 02:44:57;;;;;;;11.02;7.88;;;;;;;;;;5093462;28;20026;-70
2022/11/29 02:47:23;;;;;;;13.95;8.57;;;;;;;;;;5108986;28;20124;-71
2022/11/29 02:49:51;;;;;;;13.23;7.55;;;;;;;;;;5093153;28;20074;-72
2022/11/29 02:52:24;;;;;;;12.23;8.55;;;;;;;;;;5093108;28;20016;-71
2022/11/29 02:55:14;;;;;;;14.88;10.27;;;;;;;;;;5108782;28;20016;-70
2022/11/29 02:57:39;;;;;;;13.18;9.90;;;;;;;;;;5093128;28;20034;-71
2022/11/29 03:00:08;;;;;;;15.05;9.07;;;;;;;;;;5108236;28;20044;-73
2022/11/29 03:02:46;;;;;;;17.00;10.63;;;;;;;;;;5092820;28;20024;-72
2022/11/29 03:05:18;;;;;;;16.02;9.25;;;;;;;;;;5092595;28;20028;-73
2022/11/29 03:08:11;;;;;;;15.00;10.07;;;;;;;;;;5108472;28;20024;-73
2022/11/29 03:11:11;;;;;;;18.73;11.65;;;;;;;;;;5089195;28;20036;-72
2022/11/29 03:14:00;;;;;;;15.45;9.15;;;;;;;;;;5070329;28;20025;-72
2022/11/29 03:17:04;;;;;;;18.35;10.57;;;;;;;;;;5088502;28;20032;-72
2022/11/29 03:19:44;;;;;;;16.15;10.13;;;;;;;;;;5070398;28;20020;-69
2022/11/29 03:22:24;;;;;;;16.33;10.35;;;;;;;;;;5071118;28;20036;-72
2022/11/29 03:24:54;;;;;;;17.00;11.52;;;;;;;;;;5084956;28;20035;-72
2022/11/29 03:27:27;;;;;;;16.45;10.55;;;;;;;;;;5092541;28;20032;-75
2022/11/29 03:29:56;;;;;;;20.08;11.38;;;;;;;;;;5092866;28;20019;-72
2022/11/29 03:32:26;;;;;;;16.40;10.00;;;;;;;;;;5092841;28;20024;-69
2022/11/29 03:34:54;;;;;;;18.67;11.32;;;;;;;;;;5092769;28;20020;-71
2022/11/29 03:37:39;;;;;;;19.80;11.68;;;;;;;;;;5091023;28;20024;-73
2022/11/29 03:40:07;;;;;;;20.58;12.38;;;;;;;;;;5091168;28;20035;-74
2022/11/29 03:42:36;;;;;;;20.92;12.35;;;;;;;;;;5092195;28;20027;-74
2022/11/29 03:45:04;;;;;;;17.75;10.90;;;;;;;;;;5090998;28;20106;-73
2022/11/29 03:47:34;;;;;;;20.33;12.05;;;;;;;;;;5092325;28;20476;-75
2022/11/29 03:50:06;;;;;;;15.20;10.52;;;;;;;;;;5092373;28;20105;-77
2022/11/29 03:52:32;;;;;;;17.35;11.95;;;;;;;;;;5092594;28;20016;-74
2022/11/29 03:55:09;;;;;;;18.85;10.07;;;;;;;;;;5092054;28;20515;-77
2022/11/29 03:57:50;;;;;;;17.83;11.95;;;;;;;;;;5091243;28;20119;-76
2022/11/29 04:00:16;;;;;;;2.75;1.42;;;;;;;;;;5092200;28;20683;-77
2022/11/29 04:02:54;;;;;;;0.30;0.30;;;;;;;;;;5108055;28;20107;-77
2022/11/29 04:05:35;;;;;;;0.30;0.30;;;;;;;;;;5092049;28;20032;-71
2022/11/29 04:08:03;;;;;;;0.17;0.17;;;;;;;;;;5092310;28;20032;-75
2022/11/29 04:10:47;;;;;;;0.20;0.20;;;;;;;;;;5092437;28;20028;-75
2022/11/29 04:13:44;;;;;;;0.88;0.88;;;;;;;;;;5091882;28;20055;-76
2022/11/29 04:16:21;;;;;;;0.00;0.00;;;;;;;;;;5092199;28;20387;-75
2022/11/29 04:19:05;;;;;;;0.77;0.77;;;;;;;;;;5092013;28;20380;-76
2022/11/29 04:21:43;;;;;;;1.10;0.68;;;;;;;;;;5091942;28;20023;-76
2022/11/29 04:24:37;;;;;;;0.00;0.00;;;;;;;;;;5092260;28;20028;-76
2022/11/29 04:27:23;;;;;;;0.17;0.17;;;;;;;;;;5091719;28;20035;-74
2022/11/29 04:29:48;;;;;;;;;;;;;;;;;;5087862;28;20032;-74
2022/11/29 04:32:16;;;;;;;0.28;0.28;;;;;;;;;;5091930;28;20510;-71
2022/11/29 04:34:44;;;;;;;2.45;1.02;;;;;;;;;;5091645;28;20024;-76
2022/11/29 04:37:14;;;;;;;0.15;0.15;;;;;;;;;;5092348;28;20073;-74
2022/11/29 04:39:58;;;;;;;1.15;0.75;;;;;;;;;;5091904;28;20065;-72
2022/11/29 04:42:56;;;;;;;0.00;0.00;;;;;;;;;;5107292;28;20031;-71
2022/11/29 04:45:27;;;;;;;1.42;0.35;;;;;;;;;;5067628;28;20039;-72
2022/11/29 04:47:55;;;;;;;0.10;0.10;;;;;;;;;;5091795;28;20024;-73
2022/11/29 04:50:20;;;;;;;0.30;0.30;;;;;;;;;;5107398;28;20119;-72
2022/11/29 04:52:46;;;;;;;0.13;0.13;;;;;;;;;;5091600;28;20055;-74
2022/11/29 04:55:20;;;;;;;0.10;0.10;;;;;;;;;;5091709;28;20101;-72
2022/11/29 04:58:04;;;;;;;0.80;0.80;;;;;;;;;;5107482;28;20024;-73
2022/11/29 05:00:34;;;;;;;0.15;0.15;;;;;;;;;;5091735;28;20055;-74
2022/11/29 05:03:05;;;;;;;0.47;0.47;;;;;;;;;;5091326;28;20028;-73
2022/11/29 05:05:31;;;;;;;0.65;0.65;;;;;;;;;;5107059;28;20476;-76
2022/11/29 05:08:01;;;;;;;0.98;0.60;;;;;;;;;;5110765;28;20032;-76
2022/11/29 05:10:44;;;;;;;0.28;0.28;;;;;;;;;;5095131;28;20074;-71
2022/11/29 05:13:10;;;;;;;0.47;0.25;;;;;;;;;;5095138;28;20016;-73
2022/11/29 05:15:58;;;;;;;0.00;0.00;;;;;;;;;;5095415;28;20479;-75
2022/11/29 05:18:23;;;;;;;0.32;0.32;;;;;;;;;;5087725;28;20054;-77
2022/11/29 05:20:58;;;;;;;0.50;0.50;;;;;;;;;;5095171;28;20023;-74
2022/11/29 05:23:37;;;;;;;1.02;0.47;;;;;;;;;;5094701;28;20020;-73
2022/11/29 05:26:07;;;;;;;0.38;0.38;;;;;;;;;;5094775;28;20399;-76
2022/11/29 05:28:52;;;;;;;0.38;0.32;;;;;;;;;;5094751;28;20019;-74
2022/11/29 05:31:36;;;;;;;0.00;0.00;;;;;;;;;;5110505;28;20487;-74
2022/11/29 05:34:13;;;;;;;0.38;0.35;;;;;;;;;;5094679;28;20016;-74
2022/11/29 05:36:38;;;;;;;0.47;0.47;;;;;;;;;;5110314;28;20392;-73
2022/11/29 05:39:07;;;;;;;0.52;0.52;;;;;;;;;;5110131;28;20024;-73
2022/11/29 05:41:38;;;;;;;0.13;0.13;;;;;;;;;;5094146;28;20019;-76
2022/11/29 05:44:22;;;;;;;0.35;0.35;;;;;;;;;;5094307;28;20422;-73
2022/11/29 05:46:55;;;;;;;1.10;0.45;;;;;;;;;;5109986;28;20107;-76
2022/11/29 05:49:40;;;;;;;1.70;0.80;;;;;;;;;;5093928;28;20039;-73
2022/11/29 05:52:15;;;;;;;0.40;0.38;;;;;;;;;;5110135;28;20654;-71
2022/11/29 05:54:40;;;;;;;;;;;;;;;;;;5110811;28;20027;-76
2022/11/29 05:57:32;;;;;;;0.38;0.30;;;;;;;;;;5092791;28;19908;-74
2022/11/29 05:59:58;;;;;;;0.50;0.35;;;;;;;;;;5085080;28;20052;-77
2022/11/29 06:02:24;;;;;;;0.40;0.28;;;;;;;;;;5093790;28;20048;-74
2022/11/29 06:05:02;;;;;;;0.05;0.05;;;;;;;;;;5094130;28;20047;-72
2022/11/29 06:07:36;;;;;;;0.30;0.30;;;;;;;;;;5109606;28;20377;-75
2022/11/29 06:10:04;;;;;;;0.05;0.05;;;;;;;;;;5093301;28;20460;-74
2022/11/29 06:12:34;;;;;;;0.00;0.00;;;;;;;;;;5109099;28;20024;-72
2022/11/29 06:15:18;;;;;;;0.82;0.82;;;;;;;;;;5093371;28;20137;-74
2022/11/29 06:18:22;;;;;;;0.43;0.32;;;;;;;;;;5093680;28;20019;-72
2022/11/29 06:20:55;;;;;;;0.00;0.00;;;;;;;;;;5053877;28;20495;-74
2022/11/29 06:23:22;;;;;;;0.00;0.00;;;;;;;;;;5053834;28;20031;-74
2022/11/29 06:26:02;;;;;;;0.00;0.00;;;;;;;;;;5081865;28;20042;-74
2022/11/29 06:28:29;;;;;;;13.05;9.50;;;;;;;;;;5109280;28;20024;-72
2022/11/29 06:31:14;;;;;;;18.38;11.63;;;;;;;;;;5109409;28;20511;-75
2022/11/29 06:33:58;;;;;;;15.50;11.23;;;;;;;;;;5088598;28;20028;-75
2022/11/29 06:36:26;;;;;;;16.70;11.77;;;;;;;;;;5091873;28;20024;-73
2022/11/29 06:38:52;;;;;;;15.95;11.57;;;;;;;;;;5092438;28;20432;-74
2022/11/29 06:41:19;;;;;;;19.17;11.60;;;;;;;;;;5093285;28;20012;-74
2022/11/29 06:43:45;;;;;;;17.10;11.35;;;;;;;;;;5093157;28;20028;-75
2022/11/29 06:46:24;;;;;;;13.75;9.15;;;;;;;;;;5091988;28;20081;-75
2022/11/29 06:48:57;;;;;;;17.75;11.45;;;;;;;;;;5111925;28;20040;-75
2022/11/29 06:51:32;;;;;;;16.55;11.57;;;;;;;;;;5095536;28;20053;-73
2022/11/29 06:54:29;;;;;;;14.27;10.50;;;;;;;;;;5094425;28;20020;-74
2022/11/29 06:57:18;;;;;;;15.05;10.18;;;;;;;;;;5078901;28;20032;-75
2022/11/29 06:59:43;;;;;;;14.43;9.30;;;;;;;;;;5085552;28;20126;-76
2022/11/29 07:02:14;;;;;;;13.32;8.93;;;;;;;;;;5108543;28;20432;-74
2022/11/29 07:04:47;;;;;;;13.05;8.90;;;;;;;;;;5092670;28;20024;-77
2022/11/29 07:07:20;;;;;;;14.60;9.38;;;;;;;;;;5092514;28;20035;-75
2022/11/29 07:09:48;;;;;;;15.52;9.45;;;;;;;;;;5093656;28;20032;-76
2022/11/29 07:12:14;;;;;;;14.18;8.30;;;;;;;;;;5109343;28;20306;-77
2022/11/29 07:14:39;;;;;;;10.75;8.43;;;;;;;;;;5108831;28;20023;-75
2022/11/29 07:17:11;;;;;;;11.35;8.02;;;;;;;;;;5092968;28;20028;-74
2022/11/29 07:19:59;;;;;;;10.50;7.68;;;;;;;;;;5093663;28;20059;-77
2022/11/29 07:22:28;;;;;;;15.73;8.85;;;;;;;;;;5086320;28;20085;-76
2022/11/29 07:24:59;;;;;;;11.98;8.23;;;;;;;;;;5093413;28;20020;-76
2022/11/29 07:27:28;;;;;;;11.52;7.82;;;;;;;;;;5092717;28;20034;-76
2022/11/29 07:30:01;;;;;;;14.90;8.82;;;;;;;;;;5109236;28;20012;-79
2022/11/29 07:32:45;;;;;;;11.63;8.30;;;;;;;;;;5110292;28;20031;-78
2022/11/29 07:35:17;;;;;;;18.77;7.85;;;;;;;;;;5109881;28;20458;-78
2022/11/29 07:37:59;;;;;;;13.48;8.30;;;;;;;;;;5109396;28;20020;-79
2022/11/29 07:40:37;;;;;;;11.32;8.07;;;;;;;;;;5110236;28;20103;-82
2022/11/29 07:43:15;;;;;;;16.73;9.98;;;;;;;;;;5093217;28;20092;-77
2022/11/29 07:45:41;;;;;;;11.23;8.45;;;;;;;;;;5108740;28;20020;-77
2022/11/29 07:48:09;;;;;;;12.55;8.02;;;;;;;;;;5108373;28;20028;-76
2022/11/29 07:50:36;;;;;;;13.98;8.70;;;;;;;;;;5092275;28;20538;-75
2022/11/29 07:53:01;;;;;;;13.27;9.93;;;;;;;;;;5092115;28;20500;-76
2022/11/29 07:55:28;;;;;;;12.00;8.82;;;;;;;;;;5092000;28;20024;-77
2022/11/29 07:57:54;;;;;;;14.93;8.95;;;;;;;;;;5108327;28;20024;-78
2022/11/29 08:00:20;;;;;;;12.98;9.50;;;;;;;;;;5091413;28;20626;-77
2022/11/29 08:02:46;;;;;;;12.35;8.23;;;;;;;;;;5107391;28;20020;-75
2022/11/29 08:05:12;;;;;;;18.75;10.00;;;;;;;;;;5107179;28;20127;-75
2022/11/29 08:07:38;;;;;;;12.52;7.82;;;;;;;;;;5092141;28;20032;-74
2022/11/29 08:10:05;;;;;;;15.77;7.93;;;;;;;;;;5093058;28;20020;-74
2022/11/29 08:12:30;;;;;;;13.45;9.38;;;;;;;;;;5091790;28;20022;-76
2022/11/29 08:14:56;;;;;;;15.07;8.93;;;;;;;;;;5091730;28;20428;-74
2022/11/29 08:17:21;;;;;;;15.65;9.48;;;;;;;;;;5091917;28;20012;-74
2022/11/29 08:19:46;;;;;;;13.27;8.82;;;;;;;;;;5108043;28;20539;-80
2022/11/29 08:22:12;;;;;;;14.23;9.43;;;;;;;;;;5094299;28;20012;-76
2022/11/29 08:24:37;;;;;;;13.00;9.32;;;;;;;;;;5107754;28;20468;-74
2022/11/29 08:27:03;;;;;;;12.57;8.68;;;;;;;;;;5091463;28;20024;-74
2022/11/29 08:29:28;;;;;;;13.15;8.55;;;;;;;;;;5106924;28;20464;-73
2022/11/29 08:31:54;;;;;;;13.32;9.38;;;;;;;;;;5107093;28;20111;-74
2022/11/29 08:34:20;;;;;;;13.80;10.23;;;;;;;;;;5106893;28;20016;-72
2022/11/29 08:36:46;;;;;;;11.05;6.78;;;;;;;;;;5090138;28;20158;-73
2022/11/29 08:39:11;;;;;;;12.38;8.80;;;;;;;;;;5092078;28;20095;-77
2022/11/29 08:41:36;;;;;;;11.38;7.70;;;;;;;;;;5094376;28;20380;-78
2022/11/29 08:44:03;;;;;;;16.08;8.70;;;;;;;;;;5111920;28;20028;-77
2022/11/29 08:47:34;;;;;;;13.35;8.50;;;;;;;;;;5095427;28;20031;-75
2022/11/29 08:49:14;;;;;;;9.48;6.50;;;;;;;;;;5095802;28;20082;-75
2022/11/29 08:51:39;;;;;;;9.02;6.72;;;;;;;;;;5111477;28;20464;-76
2022/11/29 08:54:04;;;;;;;13.05;6.93;;;;;;;;;;5095904;28;20031;-80
2022/11/29 08:56:30;;;;;;;8.98;6.50;;;;;;;;;;5095604;28;20095;-76
2022/11/29 08:58:55;;;;;;;9.40;6.68;;;;;;;;;;5111408;28;20435;-78
2022/11/29 09:01:21;;;;;;;10.88;7.05;;;;;;;;;;5095678;28;20016;-76
2022/11/29 09:03:58;;;;;;;12.38;7.00;;;;;;;;;;5111388;28;20460;-78
2022/11/29 09:06:24;;;;;;;9.75;5.45;;;;;;;;;;5111265;28;20039;-78
2022/11/29 09:08:50;;;;;;;10.45;7.20;;;;;;;;;;5096025;28;20019;-78
2022/11/29 09:11:17;;;;;;;8.48;5.43;;;;;;;;;;5094743;28;20461;-76
2022/11/29 09:13:44;;;;;;;8.75;6.25;;;;;;;;;;5095610;28;20016;-75
2022/11/29 09:16:11;;;;;;;10.15;5.82;;;;;;;;;;5095509;28;20021;-76
2022/11/29 09:18:37;;;;;;;11.50;6.53;;;;;;;;;;5095054;28;20020;-74
2022/11/29 09:21:10;;;;;;;11.45;6.53;;;;;;;;;;5110670;28;20429;-78
2022/11/29 09:23:36;;;;;;;8.15;6.45;;;;;;;;;;5096350;28;20102;-73
2022/11/29 09:26:02;;;;;;;9.65;6.85;;;;;;;;;;5095191;28;20598;-74
2022/11/29 09:28:27;;;;;;;8.80;5.82;;;;;;;;;;5094906;28;20055;-78
2022/11/29 09:30:53;;;;;;;8.57;6.32;;;;;;;;;;5094538;28;20061;-80
2022/11/29 09:33:18;;;;;;;10.73;7.00;;;;;;;;;;5095001;28;20039;-78
2022/11/29 09:35:44;;;;;;;8.85;6.47;;;;;;;;;;5112543;28;20031;-77
2022/11/29 09:38:11;;;;;;;10.38;6.93;;;;;;;;;;5095165;28;20381;-77
2022/11/29 09:40:39;;;;;;;9.52;6.45;;;;;;;;;;5094994;28;20012;-79
2022/11/29 09:43:10;;;;;;;11.13;6.95;;;;;;;;;;5111177;28;20020;-79
2022/11/29 09:45:40;;;;;;;8.70;6.63;;;;;;;;;;5111179;28;20024;-78
2022/11/29 09:48:05;;;;;;;10.25;7.40;;;;;;;;;;5096275;28;20079;-80
2022/11/29 09:50:41;;;;;;;10.40;7.20;;;;;;;;;;5096783;28;20016;-80
2022/11/29 09:53:16;;;;;;;8.70;6.32;;;;;;;;;;5096737;28;20016;-80
2022/11/29 09:55:46;;;;;;;9.88;5.75;;;;;;;;;;5097602;28;20028;-80
2022/11/29 09:58:14;;;;;;;10.52;6.63;;;;;;;;;;5097400;28;20125;-80
2022/11/29 10:00:44;;;;;;;10.18;6.90;;;;;;;;;;5097280;28;20052;-77
2022/11/29 10:03:17;;;;;;;7.40;5.88;;;;;;;;;;5112686;28;20016;-78
2022/11/29 10:05:46;;;;;;;8.82;5.70;;;;;;;;;;5097484;28;20098;-77
2022/11/29 10:08:38;;;;;;;9.13;5.45;;;;;;;;;;5111971;28;20039;-72
2022/11/29 10:11:19;;;;;;;7.47;5.47;;;;;;;;;;5092722;28;20028;-79
2022/11/29 10:13:49;;;;;;;7.22;5.50;;;;;;;;;;5113062;28;20044;-80
2022/11/29 10:16:18;;;;;;;7.20;5.43;;;;;;;;;;5107945;28;20020;-77
2022/11/29 10:18:53;;;;;;;8.27;5.53;;;;;;;;;;5125666;28;20008;-81
2022/11/29 10:21:18;;;;;;;;;;;;;;;;;;5110647;28;20036;-79
2022/11/29 10:23:47;;;;;;;9.32;5.45;;;;;;;;;;5096009;28;19904;-81
2022/11/29 10:26:12;;;;;;;6.80;4.68;;;;;;;;;;5097662;28;20027;-80
2022/11/29 10:28:43;;;;;;;8.07;5.13;;;;;;;;;;5112648;28;20020;-80
2022/11/29 10:31:16;;;;;;;7.60;5.10;;;;;;;;;;5110811;28;20024;-80
2022/11/29 10:33:42;;;;;;;10.48;6.07;;;;;;;;;;5096721;28;20027;-80
2022/11/29 10:36:26;;;;;;;7.28;4.97;;;;;;;;;;5111580;28;20034;-76
2022/11/29 10:38:57;;;;;;;9.85;5.15;;;;;;;;;;5101431;28;20095;-78
2022/11/29 10:41:23;;;;;;;7.72;5.57;;;;;;;;;;5098659;28;20023;-82
2022/11/29 10:43:50;;;;;;;8.65;4.72;;;;;;;;;;5096393;28;20016;-78
2022/11/29 10:46:26;;;;;;;8.43;5.05;;;;;;;;;;5112158;28;20135;-79
2022/11/29 10:48:51;;;;;;;7.95;5.05;;;;;;;;;;5096428;28;20047;-82
2022/11/29 10:51:17;;;;;;;7.07;4.63;;;;;;;;;;5111424;28;20464;-76
2022/11/29 10:53:43;;;;;;;8.30;5.53;;;;;;;;;;5097673;28;20024;-79
2022/11/29 10:56:18;;;;;;;7.43;4.78;;;;;;;;;;5097447;28;20052;-81
2022/11/29 10:58:54;;;;;;;6.82;4.70;;;;;;;;;;5111998;28;20096;-78
2022/11/29 11:01:20;;;;;;;7.43;3.53;;;;;;;;;;5094005;28;20107;-76
2022/11/29 11:03:55;;;;;;;9.32;4.65;;;;;;;;;;5093763;28;20059;-83
2022/11/29 11:06:20;;;;;;;;;;;;;;;;;;5096009;28;20085;-77
2022/11/29 11:08:46;;;;;;;4.63;2.15;;;;;;;;;;5093142;28;19908;-75
2022/11/29 11:11:12;;;;;;;7.07;4.05;;;;;;;;;;5094313;28;20050;-77
2022/11/29 11:13:39;;;;;;;5.85;4.07;;;;;;;;;;5094580;28;20043;-80
2022/11/29 11:16:16;;;;;;;7.43;3.97;;;;;;;;;;5096140;28;20016;-81
2022/11/29 11:18:42;;;;;;;5.90;3.92;;;;;;;;;;5109516;28;20024;-78
2022/11/29 11:21:11;;;;;;;4.75;2.70;;;;;;;;;;5109582;28;20099;-78
2022/11/29 11:23:57;;;;;;;6.63;3.80;;;;;;;;;;5093196;28;20069;-77
2022/11/29 11:26:23;;;;;;;22.08;11.98;;;;;;;;;;5093673;28;20065;-82
2022/11/29 11:28:51;;;;;;;9.18;4.57;;;;;;;;;;5096484;28;20020;-85
2022/11/29 11:31:25;;;;;;;7.72;4.05;;;;;;;;;;5094792;28;20027;-81
2022/11/29 11:33:50;;;;;;;5.47;2.97;;;;;;;;;;5095119;28;20044;-82
2022/11/29 11:36:18;;;;;;;4.85;2.67;;;;;;;;;;5096186;28;20077;-75
2022/11/29 11:39:02;;;;;;;3.80;2.13;;;;;;;;;;5111667;28;20051;-83
2022/11/29 11:44:27;;;;;;;4.25;2.50;;;;;;;;;;5093978;28;20035;-78
2022/11/29 11:46:52;;;;;;;5.50;3.88;;;;;;;;;;5110049;28;20048;-79
2022/11/29 11:49:29;;;;;;;4.45;1.85;;;;;;;;;;5109013;28;20099;-76
2022/11/29 11:51:56;;;;;;;5.40;3.08;;;;;;;;;;5094577;28;20502;-80
2022/11/29 11:54:21;;;;;;;4.03;2.80;;;;;;;;;;5096679;28;20052;-79
2022/11/29 11:56:47;;;;;;;7.57;3.90;;;;;;;;;;5110106;28;20024;-78
2022/11/29 11:59:18;;;;;;;7.32;4.18;;;;;;;;;;5109405;28;20045;-77
2022/11/29 12:01:44;;;;;;;4.88;3.25;;;;;;;;;;5094127;28;20008;-80
2022/11/29 12:04:21;;;;;;;5.65;3.58;;;;;;;;;;5096717;28;20079;-77
2022/11/29 12:06:52;;;;;;;3.92;2.88;;;;;;;;;;5096930;28;20480;-81
2022/11/29 12:09:27;;;;;;;6.13;3.67;;;;;;;;;;5095325;28;20020;-82
2022/11/29 12:12:14;;;;;;;6.82;3.85;;;;;;;;;;5110895;28;20099;-82
2022/11/29 12:14:51;;;;;;;6.53;3.75;;;;;;;;;;5093622;28;20083;-80
2022/11/29 12:17:20;;;;;;;12.52;4.50;;;;;;;;;;5113951;28;20024;-79
2022/11/29 12:19:51;;;;;;;9.70;3.13;;;;;;;;;;5113331;28;20020;-78
2022/11/29 12:22:21;;;;;;;13.68;3.40;;;;;;;;;;5097275;28;20030;-75
2022/11/29 12:24:51;;;;;;;11.85;3.78;;;;;;;;;;5113427;28;20383;-80
2022/11/29 12:27:17;;;;;;;8.57;4.20;;;;;;;;;;5112578;28;20083;-81
2022/11/29 12:29:42;;;;;;;6.22;3.47;;;;;;;;;;5096505;28;20023;-79
2022/11/29 12:32:08;;;;;;;5.03;2.83;;;;;;;;;;5113361;28;20491;-79
2022/11/29 12:34:36;;;;;;;5.90;3.38;;;;;;;;;;5097606;28;20063;-81
2022/11/29 12:37:04;;;;;;;5.57;3.85;;;;;;;;;;5097436;28;20020;-80
2022/11/29 12:39:39;;;;;;;7.05;4.05;;;;;;;;;;5112971;28;20025;-79
2022/11/29 12:42:11;;;;;;;5.35;3.20;;;;;;;;;;5112649;28;20047;-77
2022/11/29 12:44:52;;;;;;;5.40;3.35;;;;;;;;;;5112096;28;20032;-77
2022/11/29 12:47:31;;;;;;;7.18;3.83;;;;;;;;;;5097522;28;20480;-78
2022/11/29 12:50:10;;;;;;;4.43;3.00;;;;;;;;;;5096243;28;20558;-78
2022/11/29 12:52:36;;;;;;;9.80;4.07;;;;;;;;;;5096595;28;20024;-77
2022/11/29 12:55:01;;;;;;;5.88;3.50;;;;;;;;;;5096635;28;20035;-81
2022/11/29 12:57:43;;;;;;;7.75;3.20;;;;;;;;;;5096679;28;20022;-75
2022/11/29 13:00:11;;;;;;;6.28;3.20;;;;;;;;;;5095993;28;20132;-79
2022/11/29 13:02:36;;;;;;;3.60;2.97;;;;;;;;;;5096459;28;20019;-77
2022/11/29 13:05:13;;;;;;;4.40;2.63;;;;;;;;;;5112476;28;20472;-81
2022/11/29 13:08:02;;;;;;;4.80;3.10;;;;;;;;;;5097989;28;20035;-77
2022/11/29 13:10:38;;;;;;;5.00;3.03;;;;;;;;;;5096681;28;20440;-78
2022/11/29 13:13:22;;;;;;;5.25;2.40;;;;;;;;;;5112287;28;20073;-78
2022/11/29 13:15:53;;;;;;;4.47;2.30;;;;;;;;;;5097722;28;20089;-85
2022/11/29 13:18:26;;;;;;;4.28;2.28;;;;;;;;;;5112399;28;20087;-78
2022/11/29 13:21:06;;;;;;;2.20;1.02;;;;;;;;;;5096673;28;20042;-79
2022/11/29 13:23:31;;;;;;;5.57;2.80;;;;;;;;;;5114184;28;20088;-76
2022/11/29 13:25:59;;;;;;;3.97;2.20;;;;;;;;;;5097082;28;20070;-80
2022/11/29 13:28:26;;;;;;;4.20;2.58;;;;;;;;;;5111100;28;20032;-83
2022/11/29 13:30:53;;;;;;;3.58;2.10;;;;;;;;;;5113207;28;20030;-76
2022/11/29 13:33:23;;;;;;;7.10;2.50;;;;;;;;;;5112634;28;20016;-78
2022/11/29 13:35:49;;;;;;;4.93;2.67;;;;;;;;;;5112818;28;20102;-78
2022/11/29 13:38:17;;;;;;;6.57;3.25;;;;;;;;;;5112675;28;20063;-77
2022/11/29 13:40:58;;;;;;;4.72;3.00;;;;;;;;;;5111196;28;20117;-76
2022/11/29 13:43:31;;;;;;;4.50;2.85;;;;;;;;;;5101340;28;20051;-77
2022/11/29 13:46:16;;;;;;;4.72;2.67;;;;;;;;;;5105860;28;20020;-78
2022/11/29 13:48:54;;;;;;;6.30;3.50;;;;;;;;;;5119833;28;20043;-74
2022/11/29 13:51:19;;;;;;;4.70;3.35;;;;;;;;;;5112344;28;20016;-80
2022/11/29 13:53:45;;;;;;;5.50;3.15;;;;;;;;;;5094962;28;20150;-80
2022/11/29 13:56:23;;;;;;;5.05;3.53;;;;;;;;;;5110996;28;20492;-76
2022/11/29 13:58:51;;;;;;;5.78;2.45;;;;;;;;;;5094587;28;20044;-78
2022/11/29 14:01:17;;;;;;;5.40;3.38;;;;;;;;;;5095103;28;20570;-76
2022/11/29 14:03:50;;;;;;;7.20;3.88;;;;;;;;;;5095820;28;20130;-81
2022/11/29 14:06:20;;;;;;;5.15;3.30;;;;;;;;;;5095483;28;20475;-81
2022/11/29 14:08:52;;;;;;;7.15;3.80;;;;;;;;;;5110846;28;20498;-79
2022/11/29 14:11:25;;;;;;;8.40;4.15;;;;;;;;;;5095616;28;20018;-79
2022/11/29 14:13:53;;;;;;;7.55;4.15;;;;;;;;;;5094223;28;20050;-83
2022/11/29 14:16:25;;;;;;;4.40;2.35;;;;;;;;;;5094157;28;20111;-75
2022/11/29 14:19:10;;;;;;;8.20;3.58;;;;;;;;;;5094871;28;20530;-81
2022/11/29 14:21:55;;;;;;;9.07;3.83;;;;;;;;;;5086687;28;20134;-78
2022/11/29 14:24:35;;;;;;;8.63;3.88;;;;;;;;;;5095072;28;20024;-78
2022/11/29 14:29:52;;;;;;;8.40;3.63;;;;;;;;;;5094392;28;20039;-80
2022/11/29 14:32:36;;;;;;;7.53;3.92;;;;;;;;;;5096619;28;20392;-77
2022/11/29 14:35:10;;;;;;;6.80;3.33;;;;;;;;;;5111692;28;20023;-80
2022/11/29 14:37:54;;;;;;;7.10;4.53;;;;;;;;;;5110537;28;20464;-78
2022/11/29 14:40:32;;;;;;;7.15;4.28;;;;;;;;;;5109270;28;20115;-79
2022/11/29 14:42:58;;;;;;;6.90;3.85;;;;;;;;;;5110119;28;20104;-79
2022/11/29 14:45:26;;;;;;;6.63;3.50;;;;;;;;;;5095634;28;20024;-79
2022/11/29 14:47:51;;;;;;;7.78;4.35;;;;;;;;;;5110594;28;20028;-79
2022/11/29 14:50:43;;;;;;;5.18;3.08;;;;;;;;;;5094993;28;20018;-79
2022/11/29 14:53:28;;;;;;;8.25;3.45;;;;;;;;;;5091318;28;20100;-73
2022/11/29 14:56:13;;;;;;;6.38;1.95;;;;;;;;;;5108693;28;20020;-72
2022/11/29 14:58:38;;;;;;;7.72;4.55;;;;;;;;;;5093529;28;20101;-75
2022/11/29 15:01:06;;;;;;;6.47;3.63;;;;;;;;;;5091927;28;20383;-74
2022/11/29 15:03:33;;;;;;;9.30;4.28;;;;;;;;;;5108070;28;20020;-74
2022/11/29 15:06:07;;;;;;;5.40;3.60;;;;;;;;;;5092483;28;20024;-74
2022/11/29 15:08:39;;;;;;;6.13;3.70;;;;;;;;;;5107837;28;20042;-74
2022/11/29 15:11:04;;;;;;;5.90;4.03;;;;;;;;;;5107922;28;20020;-75